sensor_id;sensor_type;location;lat;lon;timestamp;temperature;humidity
11666;DHT22;5889;51.350;6.708;2023-09-07T00:01:30;21.40;99.90
11666;DHT22;5889;51.350;6.708;2023-09-07T00:03:57;21.40;99.90
11666;DHT22;5889;51.350;6.708;2023-09-07T00:06:24;21.40;99.90
11666;DHT22;5889;51.350;6.708;2023-09-07T00:08:54;21.30;99.90
11666;DHT22;5889;51.350;6.708;2023-09-07T00:11:21;21.30;99.90
11666;DHT22;5889;51.350;6.708;2023-09-07T00:13:48;21.20;99.90
11666;DHT22;5889;51.350;6.708;2023-09-07T00:16:16;21.20;99.90
11666;DHT22;5889;51.350;6.708;2023-09-07T00:18:45;21.20;99.90
11666;DHT22;5889;51.350;6.708;2023-09-07T00:21:12;21.10;99.90
11666;DHT22;5889;51.350;6.708;2023-09-07T00:23:40;21.10;99.90
11666;DHT22;5889;51.350;6.708;2023-09-07T00:26:08;21.10;99.90
11666;DHT22;5889;51.350;6.708;2023-09-07T00:28:40;21.00;99.90
11666;DHT22;5889;51.350;6.708;2023-09-07T00:31:07;21.00;99.90
11666;DHT22;5889;51.350;6.708;2023-09-07T00:33:34;21.00;99.90
11666;DHT22;5889;51.350;6.708;2023-09-07T00:36:01;20.90;99.90
11666;DHT22;5889;51.350;6.708;2023-09-07T00:38:29;20.90;99.90
11666;DHT22;5889;51.350;6.708;2023-09-07T00:40:56;20.80;99.90
11666;DHT22;5889;51.350;6.708;2023-09-07T00:43:24;20.80;99.90
11666;DHT22;5889;51.350;6.708;2023-09-07T00:45:51;20.70;99.90
11666;DHT22;5889;51.350;6.708;2023-09-07T00:48:18;20.80;99.90
11666;DHT22;5889;51.350;6.708;2023-09-07T00:50:46;20.70;99.90
11666;DHT22;5889;51.350;6.708;2023-09-07T00:53:16;20.70;99.90
11666;DHT22;5889;51.350;6.708;2023-09-07T00:55:44;20.70;99.90
11666;DHT22;5889;51.350;6.708;2023-09-07T00:58:10;20.60;99.90
11666;DHT22;5889;51.350;6.708;2023-09-07T01:00:39;20.60;99.90
11666;DHT22;5889;51.350;6.708;2023-09-07T01:03:07;20.60;99.90
11666;DHT22;5889;51.350;6.708;2023-09-07T01:05:43;20.60;99.90
11666;DHT22;5889;51.350;6.708;2023-09-07T01:08:19;20.50;99.90
11666;DHT22;5889;51.350;6.708;2023-09-07T01:10:47;20.50;99.90
11666;DHT22;5889;51.350;6.708;2023-09-07T01:13:14;20.50;99.90
11666;DHT22;5889;51.350;6.708;2023-09-07T01:15:43;20.50;99.90
11666;DHT22;5889;51.350;6.708;2023-09-07T01:18:10;20.50;99.90
11666;DHT22;5889;51.350;6.708;2023-09-07T01:20:39;20.50;99.90
11666;DHT22;5889;51.350;6.708;2023-09-07T01:23:09;20.40;99.90
11666;DHT22;5889;51.350;6.708;2023-09-07T01:25:36;20.40;99.90
11666;DHT22;5889;51.350;6.708;2023-09-07T01:28:04;20.40;99.90
11666;DHT22;5889;51.350;6.708;2023-09-07T01:30:31;20.40;99.90
11666;DHT22;5889;51.350;6.708;2023-09-07T01:32:58;20.30;99.90
11666;DHT22;5889;51.350;6.708;2023-09-07T01:35:25;20.30;99.90
11666;DHT22;5889;51.350;6.708;2023-09-07T01:37:53;20.30;99.90
11666;DHT22;5889;51.350;6.708;2023-09-07T01:40:21;20.30;99.90
11666;DHT22;5889;51.350;6.708;2023-09-07T01:42:48;20.30;99.90
11666;DHT22;5889;51.350;6.708;2023-09-07T01:45:15;20.20;99.90
11666;DHT22;5889;51.350;6.708;2023-09-07T01:47:41;20.10;99.90
11666;DHT22;5889;51.350;6.708;2023-09-07T01:50:08;20.20;99.90
11666;DHT22;5889;51.350;6.708;2023-09-07T01:52:35;20.10;99.90
11666;DHT22;5889;51.350;6.708;2023-09-07T01:55:03;20.10;99.90
11666;DHT22;5889;51.350;6.708;2023-09-07T01:57:31;20.00;99.90
11666;DHT22;5889;51.350;6.708;2023-09-07T02:00:01;20.00;99.90
11666;DHT22;5889;51.350;6.708;2023-09-07T02:02:30;20.00;99.90
11666;DHT22;5889;51.350;6.708;2023-09-07T02:04:57;19.90;99.90
11666;DHT22;5889;51.350;6.708;2023-09-07T02:07:24;19.90;99.90
11666;DHT22;5889;51.350;6.708;2023-09-07T02:09:51;19.80;99.90
11666;DHT22;5889;51.350;6.708;2023-09-07T02:12:18;19.80;99.90
11666;DHT22;5889;51.350;6.708;2023-09-07T02:14:46;19.80;99.90
11666;DHT22;5889;51.350;6.708;2023-09-07T02:17:13;19.80;99.90
11666;DHT22;5889;51.350;6.708;2023-09-07T02:19:43;19.70;99.90
11666;DHT22;5889;51.350;6.708;2023-09-07T02:22:10;19.70;99.90
11666;DHT22;5889;51.350;6.708;2023-09-07T02:24:37;19.70;99.90
11666;DHT22;5889;51.350;6.708;2023-09-07T02:27:04;19.70;99.90
11666;DHT22;5889;51.350;6.708;2023-09-07T02:29:31;19.70;99.90
11666;DHT22;5889;51.350;6.708;2023-09-07T02:31:59;19.60;99.90
11666;DHT22;5889;51.350;6.708;2023-09-07T02:34:27;19.60;99.90
11666;DHT22;5889;51.350;6.708;2023-09-07T02:36:53;19.60;99.90
11666;DHT22;5889;51.350;6.708;2023-09-07T02:39:22;19.60;99.90
11666;DHT22;5889;51.350;6.708;2023-09-07T02:41:51;19.50;99.90
11666;DHT22;5889;51.350;6.708;2023-09-07T02:44:18;19.50;99.90
11666;DHT22;5889;51.350;6.708;2023-09-07T02:46:45;19.40;99.90
11666;DHT22;5889;51.350;6.708;2023-09-07T02:49:14;19.40;99.90
11666;DHT22;5889;51.350;6.708;2023-09-07T02:51:41;19.30;99.90
11666;DHT22;5889;51.350;6.708;2023-09-07T02:54:08;19.10;99.90
11666;DHT22;5889;51.350;6.708;2023-09-07T02:56:35;19.00;99.90
11666;DHT22;5889;51.350;6.708;2023-09-07T02:59:02;19.00;99.90
11666;DHT22;5889;51.350;6.708;2023-09-07T03:01:30;18.90;99.90
11666;DHT22;5889;51.350;6.708;2023-09-07T03:03:57;18.80;99.90
11666;DHT22;5889;51.350;6.708;2023-09-07T03:06:25;18.70;99.90
11666;DHT22;5889;51.350;6.708;2023-09-07T03:08:52;18.60;99.90
11666;DHT22;5889;51.350;6.708;2023-09-07T03:11:19;18.60;99.90
11666;DHT22;5889;51.350;6.708;2023-09-07T03:13:46;18.60;99.90
11666;DHT22;5889;51.350;6.708;2023-09-07T03:16:13;18.60;99.90
11666;DHT22;5889;51.350;6.708;2023-09-07T03:18:40;18.60;99.90
11666;DHT22;5889;51.350;6.708;2023-09-07T03:21:07;18.60;99.90
11666;DHT22;5889;51.350;6.708;2023-09-07T03:23:35;18.60;99.90
11666;DHT22;5889;51.350;6.708;2023-09-07T03:26:05;18.70;99.90
11666;DHT22;5889;51.350;6.708;2023-09-07T03:28:32;18.60;99.90
11666;DHT22;5889;51.350;6.708;2023-09-07T03:30:58;18.60;99.90
11666;DHT22;5889;51.350;6.708;2023-09-07T03:33:25;18.60;99.90
11666;DHT22;5889;51.350;6.708;2023-09-07T03:35:52;18.60;99.90
11666;DHT22;5889;51.350;6.708;2023-09-07T03:38:24;18.60;99.90
11666;DHT22;5889;51.350;6.708;2023-09-07T03:40:52;18.60;99.90
11666;DHT22;5889;51.350;6.708;2023-09-07T03:43:19;18.60;99.90
11666;DHT22;5889;51.350;6.708;2023-09-07T03:45:46;18.60;99.90
11666;DHT22;5889;51.350;6.708;2023-09-07T03:48:13;18.60;99.90
11666;DHT22;5889;51.350;6.708;2023-09-07T03:50:40;18.40;99.90
11666;DHT22;5889;51.350;6.708;2023-09-07T03:53:07;18.30;99.90
11666;DHT22;5889;51.350;6.708;2023-09-07T03:55:40;18.10;99.90
11666;DHT22;5889;51.350;6.708;2023-09-07T03:58:09;18.00;99.90
11666;DHT22;5889;51.350;6.708;2023-09-07T04:00:38;17.90;99.90
11666;DHT22;5889;51.350;6.708;2023-09-07T04:03:06;17.80;99.90
11666;DHT22;5889;51.350;6.708;2023-09-07T04:05:33;17.80;99.90
11666;DHT22;5889;51.350;6.708;2023-09-07T04:08:00;17.80;99.90
11666;DHT22;5889;51.350;6.708;2023-09-07T04:10:28;17.80;99.90
11666;DHT22;5889;51.350;6.708;2023-09-07T04:12:55;17.80;99.90
11666;DHT22;5889;51.350;6.708;2023-09-07T04:15:23;17.80;99.90
11666;DHT22;5889;51.350;6.708;2023-09-07T04:17:51;17.80;99.90
11666;DHT22;5889;51.350;6.708;2023-09-07T04:20:20;17.80;99.90
11666;DHT22;5889;51.350;6.708;2023-09-07T04:22:47;17.70;99.90
11666;DHT22;5889;51.350;6.708;2023-09-07T04:25:14;17.70;99.90
11666;DHT22;5889;51.350;6.708;2023-09-07T04:27:41;17.60;99.90
11666;DHT22;5889;51.350;6.708;2023-09-07T04:30:09;17.60;99.90
11666;DHT22;5889;51.350;6.708;2023-09-07T04:32:37;17.60;99.90
11666;DHT22;5889;51.350;6.708;2023-09-07T04:35:05;17.60;99.90
11666;DHT22;5889;51.350;6.708;2023-09-07T04:37:32;17.60;99.90
11666;DHT22;5889;51.350;6.708;2023-09-07T04:39:59;17.60;99.90
11666;DHT22;5889;51.350;6.708;2023-09-07T04:42:27;17.60;99.90
11666;DHT22;5889;51.350;6.708;2023-09-07T04:44:55;17.70;99.90
11666;DHT22;5889;51.350;6.708;2023-09-07T04:47:22;17.70;99.90
11666;DHT22;5889;51.350;6.708;2023-09-07T04:49:50;17.70;99.90
11666;DHT22;5889;51.350;6.708;2023-09-07T04:52:17;17.70;99.90
11666;DHT22;5889;51.350;6.708;2023-09-07T04:54:45;17.70;99.90
11666;DHT22;5889;51.350;6.708;2023-09-07T04:57:18;17.70;99.90
11666;DHT22;5889;51.350;6.708;2023-09-07T04:59:45;17.60;99.90
11666;DHT22;5889;51.350;6.708;2023-09-07T05:02:12;17.60;99.90
11666;DHT22;5889;51.350;6.708;2023-09-07T05:04:39;17.50;99.90
11666;DHT22;5889;51.350;6.708;2023-09-07T05:07:07;17.50;99.90
11666;DHT22;5889;51.350;6.708;2023-09-07T05:09:34;17.50;99.90
11666;DHT22;5889;51.350;6.708;2023-09-07T05:12:01;17.40;99.90
11666;DHT22;5889;51.350;6.708;2023-09-07T05:14:28;17.30;99.90
11666;DHT22;5889;51.350;6.708;2023-09-07T05:16:55;17.30;99.90
11666;DHT22;5889;51.350;6.708;2023-09-07T05:19:23;17.30;99.90
11666;DHT22;5889;51.350;6.708;2023-09-07T05:21:50;17.30;99.90
11666;DHT22;5889;51.350;6.708;2023-09-07T05:24:18;17.30;99.90
11666;DHT22;5889;51.350;6.708;2023-09-07T05:26:45;17.30;99.90
11666;DHT22;5889;51.350;6.708;2023-09-07T05:29:12;17.30;99.90
11666;DHT22;5889;51.350;6.708;2023-09-07T05:31:39;17.40;99.90
11666;DHT22;5889;51.350;6.708;2023-09-07T05:34:06;17.40;99.90
11666;DHT22;5889;51.350;6.708;2023-09-07T05:36:36;17.40;99.90
11666;DHT22;5889;51.350;6.708;2023-09-07T05:39:03;17.50;99.90
11666;DHT22;5889;51.350;6.708;2023-09-07T05:41:31;17.40;99.90
11666;DHT22;5889;51.350;6.708;2023-09-07T05:43:58;17.40;99.90
11666;DHT22;5889;51.350;6.708;2023-09-07T05:46:25;17.50;99.90
11666;DHT22;5889;51.350;6.708;2023-09-07T05:48:52;17.50;99.90
11666;DHT22;5889;51.350;6.708;2023-09-07T05:51:19;17.70;99.90
11666;DHT22;5889;51.350;6.708;2023-09-07T05:53:46;17.80;99.90
11666;DHT22;5889;51.350;6.708;2023-09-07T05:56:13;17.90;99.90
11666;DHT22;5889;51.350;6.708;2023-09-07T05:58:41;18.00;99.90
11666;DHT22;5889;51.350;6.708;2023-09-07T06:01:08;18.10;99.90
11666;DHT22;5889;51.350;6.708;2023-09-07T06:03:35;18.20;99.90
11666;DHT22;5889;51.350;6.708;2023-09-07T06:06:05;18.30;99.90
11666;DHT22;5889;51.350;6.708;2023-09-07T06:08:31;18.40;99.90
11666;DHT22;5889;51.350;6.708;2023-09-07T06:10:58;18.50;99.90
11666;DHT22;5889;51.350;6.708;2023-09-07T06:13:26;18.50;99.90
11666;DHT22;5889;51.350;6.708;2023-09-07T06:15:54;18.60;99.90
11666;DHT22;5889;51.350;6.708;2023-09-07T06:18:21;18.60;99.90
11666;DHT22;5889;51.350;6.708;2023-09-07T06:20:48;18.70;99.90
11666;DHT22;5889;51.350;6.708;2023-09-07T06:23:15;18.80;99.90
11666;DHT22;5889;51.350;6.708;2023-09-07T06:25:42;18.80;99.90
11666;DHT22;5889;51.350;6.708;2023-09-07T06:28:09;18.90;99.90
11666;DHT22;5889;51.350;6.708;2023-09-07T06:30:36;19.00;99.90
11666;DHT22;5889;51.350;6.708;2023-09-07T06:33:04;19.00;99.90
11666;DHT22;5889;51.350;6.708;2023-09-07T06:35:31;19.20;99.90
11666;DHT22;5889;51.350;6.708;2023-09-07T06:38:01;19.20;99.90
11666;DHT22;5889;51.350;6.708;2023-09-07T06:40:28;19.30;99.90
11666;DHT22;5889;51.350;6.708;2023-09-07T06:42:55;19.30;99.90
11666;DHT22;5889;51.350;6.708;2023-09-07T06:45:23;19.40;99.90
11666;DHT22;5889;51.350;6.708;2023-09-07T06:47:50;19.50;99.90
11666;DHT22;5889;51.350;6.708;2023-09-07T06:50:20;19.50;99.90
11666;DHT22;5889;51.350;6.708;2023-09-07T06:52:47;19.60;99.90
11666;DHT22;5889;51.350;6.708;2023-09-07T06:55:14;19.70;99.90
11666;DHT22;5889;51.350;6.708;2023-09-07T06:57:41;19.70;99.90
11666;DHT22;5889;51.350;6.708;2023-09-07T07:00:09;19.80;99.90
11666;DHT22;5889;51.350;6.708;2023-09-07T07:02:37;19.80;99.90
11666;DHT22;5889;51.350;6.708;2023-09-07T07:05:05;19.90;99.90
11666;DHT22;5889;51.350;6.708;2023-09-07T07:07:34;20.00;99.90
11666;DHT22;5889;51.350;6.708;2023-09-07T07:10:01;20.10;99.90
11666;DHT22;5889;51.350;6.708;2023-09-07T07:12:31;20.10;99.90
11666;DHT22;5889;51.350;6.708;2023-09-07T07:15:00;20.20;99.90
11666;DHT22;5889;51.350;6.708;2023-09-07T07:17:27;20.30;99.90
11666;DHT22;5889;51.350;6.708;2023-09-07T07:19:54;20.40;99.90
11666;DHT22;5889;51.350;6.708;2023-09-07T07:22:21;20.40;99.90
11666;DHT22;5889;51.350;6.708;2023-09-07T07:24:49;20.50;99.90
11666;DHT22;5889;51.350;6.708;2023-09-07T07:27:16;20.60;99.90
11666;DHT22;5889;51.350;6.708;2023-09-07T07:29:43;20.70;99.90
11666;DHT22;5889;51.350;6.708;2023-09-07T07:32:10;20.80;99.90
11666;DHT22;5889;51.350;6.708;2023-09-07T07:34:37;20.90;99.90
11666;DHT22;5889;51.350;6.708;2023-09-07T07:37:04;21.00;99.90
11666;DHT22;5889;51.350;6.708;2023-09-07T07:39:31;21.10;99.90
11666;DHT22;5889;51.350;6.708;2023-09-07T07:42:00;21.20;99.90
11666;DHT22;5889;51.350;6.708;2023-09-07T07:44:28;21.20;99.90
11666;DHT22;5889;51.350;6.708;2023-09-07T07:46:55;21.30;99.90
11666;DHT22;5889;51.350;6.708;2023-09-07T07:49:22;21.40;99.90
11666;DHT22;5889;51.350;6.708;2023-09-07T07:51:49;21.50;99.90
11666;DHT22;5889;51.350;6.708;2023-09-07T07:54:17;21.60;99.90
11666;DHT22;5889;51.350;6.708;2023-09-07T07:56:43;21.70;99.90
11666;DHT22;5889;51.350;6.708;2023-09-07T07:59:12;21.70;99.90
11666;DHT22;5889;51.350;6.708;2023-09-07T08:01:39;21.80;99.90
11666;DHT22;5889;51.350;6.708;2023-09-07T08:04:06;21.90;99.90
11666;DHT22;5889;51.350;6.708;2023-09-07T08:06:32;22.00;99.90
11666;DHT22;5889;51.350;6.708;2023-09-07T08:09:00;22.20;99.90
11666;DHT22;5889;51.350;6.708;2023-09-07T08:11:27;22.30;99.90
11666;DHT22;5889;51.350;6.708;2023-09-07T08:13:54;22.40;99.90
11666;DHT22;5889;51.350;6.708;2023-09-07T08:16:22;22.50;99.90
11666;DHT22;5889;51.350;6.708;2023-09-07T08:18:49;22.70;99.90
11666;DHT22;5889;51.350;6.708;2023-09-07T08:21:16;22.80;99.90
11666;DHT22;5889;51.350;6.708;2023-09-07T08:23:43;23.00;99.90
11666;DHT22;5889;51.350;6.708;2023-09-07T08:26:10;23.20;99.90
11666;DHT22;5889;51.350;6.708;2023-09-07T08:28:38;23.40;99.90
11666;DHT22;5889;51.350;6.708;2023-09-07T08:31:05;23.70;99.90
11666;DHT22;5889;51.350;6.708;2023-09-07T08:33:33;23.90;99.90
11666;DHT22;5889;51.350;6.708;2023-09-07T08:36:08;24.10;99.90
11666;DHT22;5889;51.350;6.708;2023-09-07T08:38:36;24.40;99.90
11666;DHT22;5889;51.350;6.708;2023-09-07T08:41:03;24.50;99.90
11666;DHT22;5889;51.350;6.708;2023-09-07T08:43:33;24.70;99.90
11666;DHT22;5889;51.350;6.708;2023-09-07T08:46:09;25.00;99.90
11666;DHT22;5889;51.350;6.708;2023-09-07T08:48:42;25.10;99.90
11666;DHT22;5889;51.350;6.708;2023-09-07T08:51:09;25.30;99.80
11666;DHT22;5889;51.350;6.708;2023-09-07T08:53:39;25.50;99.20
11666;DHT22;5889;51.350;6.708;2023-09-07T08:56:07;25.70;99.00
11666;DHT22;5889;51.350;6.708;2023-09-07T08:58:35;25.90;98.50
11666;DHT22;5889;51.350;6.708;2023-09-07T09:01:02;26.10;98.20
11666;DHT22;5889;51.350;6.708;2023-09-07T09:03:29;26.30;98.00
11666;DHT22;5889;51.350;6.708;2023-09-07T09:05:58;26.50;97.60
11666;DHT22;5889;51.350;6.708;2023-09-07T09:08:25;26.60;97.10
11666;DHT22;5889;51.350;6.708;2023-09-07T09:10:59;26.80;96.90
11666;DHT22;5889;51.350;6.708;2023-09-07T09:13:30;27.00;96.70
11666;DHT22;5889;51.350;6.708;2023-09-07T09:15:59;27.30;95.80
11666;DHT22;5889;51.350;6.708;2023-09-07T09:18:26;27.40;95.30
11666;DHT22;5889;51.350;6.708;2023-09-07T09:20:54;27.50;95.00
11666;DHT22;5889;51.350;6.708;2023-09-07T09:23:22;27.60;94.20
11666;DHT22;5889;51.350;6.708;2023-09-07T09:25:49;27.70;93.90
11666;DHT22;5889;51.350;6.708;2023-09-07T09:28:17;27.90;93.90
11666;DHT22;5889;51.350;6.708;2023-09-07T09:30:44;28.00;93.60
11666;DHT22;5889;51.350;6.708;2023-09-07T09:33:11;28.10;93.60
11666;DHT22;5889;51.350;6.708;2023-09-07T09:35:37;28.20;93.50
11666;DHT22;5889;51.350;6.708;2023-09-07T09:38:04;28.40;93.40
11666;DHT22;5889;51.350;6.708;2023-09-07T09:40:33;28.50;93.30
11666;DHT22;5889;51.350;6.708;2023-09-07T09:43:02;28.70;93.20
11666;DHT22;5889;51.350;6.708;2023-09-07T09:45:29;28.90;93.20
11666;DHT22;5889;51.350;6.708;2023-09-07T09:47:58;29.10;93.10
11666;DHT22;5889;51.350;6.708;2023-09-07T09:50:26;29.20;92.90
11666;DHT22;5889;51.350;6.708;2023-09-07T09:52:54;29.40;92.90
11666;DHT22;5889;51.350;6.708;2023-09-07T09:55:22;29.50;92.60
11666;DHT22;5889;51.350;6.708;2023-09-07T09:57:50;29.70;92.50
11666;DHT22;5889;51.350;6.708;2023-09-07T10:00:17;29.70;91.90
11666;DHT22;5889;51.350;6.708;2023-09-07T10:02:58;29.70;91.70
11666;DHT22;5889;51.350;6.708;2023-09-07T10:05:28;29.60;91.40
11666;DHT22;5889;51.350;6.708;2023-09-07T10:08:01;29.70;91.50
11666;DHT22;5889;51.350;6.708;2023-09-07T10:10:33;29.70;91.80
11666;DHT22;5889;51.350;6.708;2023-09-07T10:13:03;29.90;91.80
11666;DHT22;5889;51.350;6.708;2023-09-07T10:15:31;30.00;91.40
11666;DHT22;5889;51.350;6.708;2023-09-07T10:18:11;30.10;91.50
11666;DHT22;5889;51.350;6.708;2023-09-07T10:20:51;30.20;91.30
11666;DHT22;5889;51.350;6.708;2023-09-07T10:23:18;30.40;91.30
11666;DHT22;5889;51.350;6.708;2023-09-07T10:25:50;30.50;91.10
11666;DHT22;5889;51.350;6.708;2023-09-07T10:28:23;30.50;90.50
11666;DHT22;5889;51.350;6.708;2023-09-07T10:31:01;30.60;90.70
11666;DHT22;5889;51.350;6.708;2023-09-07T10:33:32;30.60;90.60
11666;DHT22;5889;51.350;6.708;2023-09-07T10:36:00;30.80;90.80
11666;DHT22;5889;51.350;6.708;2023-09-07T10:38:28;30.80;90.50
11666;DHT22;5889;51.350;6.708;2023-09-07T10:40:56;30.90;90.40
11666;DHT22;5889;51.350;6.708;2023-09-07T10:43:29;31.10;90.50
11666;DHT22;5889;51.350;6.708;2023-09-07T10:45:59;31.20;90.50
11666;DHT22;5889;51.350;6.708;2023-09-07T10:48:28;31.10;90.30
11666;DHT22;5889;51.350;6.708;2023-09-07T10:50:56;31.20;90.20
11666;DHT22;5889;51.350;6.708;2023-09-07T10:53:29;31.20;90.10
11666;DHT22;5889;51.350;6.708;2023-09-07T10:55:58;31.20;90.10
11666;DHT22;5889;51.350;6.708;2023-09-07T10:58:27;31.20;89.60
11666;DHT22;5889;51.350;6.708;2023-09-07T11:00:55;31.20;89.50
11666;DHT22;5889;51.350;6.708;2023-09-07T11:03:22;31.30;89.60
11666;DHT22;5889;51.350;6.708;2023-09-07T11:05:50;31.40;89.80
11666;DHT22;5889;51.350;6.708;2023-09-07T11:08:18;31.40;89.40
11666;DHT22;5889;51.350;6.708;2023-09-07T11:10:45;31.40;88.40
11666;DHT22;5889;51.350;6.708;2023-09-07T11:13:12;31.30;88.70
11666;DHT22;5889;51.350;6.708;2023-09-07T11:15:42;31.30;89.10
11666;DHT22;5889;51.350;6.708;2023-09-07T11:18:09;31.30;89.00
11666;DHT22;5889;51.350;6.708;2023-09-07T11:20:36;31.40;89.40
11666;DHT22;5889;51.350;6.708;2023-09-07T11:23:05;31.50;89.50
11666;DHT22;5889;51.350;6.708;2023-09-07T11:25:36;31.50;88.90
11666;DHT22;5889;51.350;6.708;2023-09-07T11:28:04;31.60;88.00
11666;DHT22;5889;51.350;6.708;2023-09-07T11:30:31;31.50;87.30
11666;DHT22;5889;51.350;6.708;2023-09-07T11:33:04;31.40;87.10
11666;DHT22;5889;51.350;6.708;2023-09-07T11:35:32;31.40;87.90
11666;DHT22;5889;51.350;6.708;2023-09-07T11:38:00;31.50;87.50
11666;DHT22;5889;51.350;6.708;2023-09-07T11:40:29;31.50;87.70
11666;DHT22;5889;51.350;6.708;2023-09-07T11:42:56;31.60;87.50
11666;DHT22;5889;51.350;6.708;2023-09-07T11:45:24;31.60;87.80
11666;DHT22;5889;51.350;6.708;2023-09-07T11:47:51;31.70;87.40
11666;DHT22;5889;51.350;6.708;2023-09-07T11:50:23;31.70;86.00
11666;DHT22;5889;51.350;6.708;2023-09-07T11:52:50;31.60;86.50
11666;DHT22;5889;51.350;6.708;2023-09-07T11:55:17;31.50;86.70
11666;DHT22;5889;51.350;6.708;2023-09-07T11:57:45;31.60;87.80
11666;DHT22;5889;51.350;6.708;2023-09-07T12:00:12;31.60;87.90
11666;DHT22;5889;51.350;6.708;2023-09-07T12:02:40;31.70;88.00
11666;DHT22;5889;51.350;6.708;2023-09-07T12:05:08;31.80;87.80
11666;DHT22;5889;51.350;6.708;2023-09-07T12:07:36;31.90;87.40
11666;DHT22;5889;51.350;6.708;2023-09-07T12:10:04;32.10;88.20
11666;DHT22;5889;51.350;6.708;2023-09-07T12:12:31;32.10;87.10
11666;DHT22;5889;51.350;6.708;2023-09-07T12:14:58;32.20;86.40
11666;DHT22;5889;51.350;6.708;2023-09-07T12:17:25;32.20;85.40
11666;DHT22;5889;51.350;6.708;2023-09-07T12:19:52;32.20;85.40
11666;DHT22;5889;51.350;6.708;2023-09-07T12:22:19;32.20;85.20
11666;DHT22;5889;51.350;6.708;2023-09-07T12:24:48;32.20;85.50
11666;DHT22;5889;51.350;6.708;2023-09-07T12:27:16;32.20;85.20
11666;DHT22;5889;51.350;6.708;2023-09-07T12:29:44;32.20;85.00
11666;DHT22;5889;51.350;6.708;2023-09-07T12:32:11;32.20;85.40
11666;DHT22;5889;51.350;6.708;2023-09-07T12:34:38;32.20;84.60
11666;DHT22;5889;51.350;6.708;2023-09-07T12:37:05;32.20;84.80
11666;DHT22;5889;51.350;6.708;2023-09-07T12:39:33;32.30;85.30
11666;DHT22;5889;51.350;6.708;2023-09-07T12:42:01;32.30;85.20
11666;DHT22;5889;51.350;6.708;2023-09-07T12:44:29;32.40;84.80
11666;DHT22;5889;51.350;6.708;2023-09-07T12:46:55;32.40;85.20
11666;DHT22;5889;51.350;6.708;2023-09-07T12:49:22;32.50;85.20
11666;DHT22;5889;51.350;6.708;2023-09-07T12:51:49;32.60;85.90
11666;DHT22;5889;51.350;6.708;2023-09-07T12:54:16;32.60;85.80
11666;DHT22;5889;51.350;6.708;2023-09-07T12:56:44;32.60;85.50
11666;DHT22;5889;51.350;6.708;2023-09-07T12:59:12;32.70;84.40
11666;DHT22;5889;51.350;6.708;2023-09-07T13:01:39;32.70;84.70
11666;DHT22;5889;51.350;6.708;2023-09-07T13:04:06;32.70;84.10
11666;DHT22;5889;51.350;6.708;2023-09-07T13:06:33;32.70;83.00
11666;DHT22;5889;51.350;6.708;2023-09-07T13:09:00;32.80;84.20
11666;DHT22;5889;51.350;6.708;2023-09-07T13:11:29;32.90;83.70
11666;DHT22;5889;51.350;6.708;2023-09-07T13:13:57;32.90;82.90
11666;DHT22;5889;51.350;6.708;2023-09-07T13:16:26;32.90;82.50
11666;DHT22;5889;51.350;6.708;2023-09-07T13:18:53;32.90;82.80
11666;DHT22;5889;51.350;6.708;2023-09-07T13:21:20;32.90;82.90
11666;DHT22;5889;51.350;6.708;2023-09-07T13:23:47;32.80;82.40
11666;DHT22;5889;51.350;6.708;2023-09-07T13:26:14;32.80;82.00
11666;DHT22;5889;51.350;6.708;2023-09-07T13:28:41;32.80;81.90
11666;DHT22;5889;51.350;6.708;2023-09-07T13:31:08;32.80;82.90
11666;DHT22;5889;51.350;6.708;2023-09-07T13:33:36;32.90;82.40
11666;DHT22;5889;51.350;6.708;2023-09-07T13:36:03;32.90;81.70
11666;DHT22;5889;51.350;6.708;2023-09-07T13:38:30;32.90;81.20
11666;DHT22;5889;51.350;6.708;2023-09-07T13:40:57;33.00;82.00
11666;DHT22;5889;51.350;6.708;2023-09-07T13:43:24;33.10;80.90
11666;DHT22;5889;51.350;6.708;2023-09-07T13:45:51;33.10;79.40
11666;DHT22;5889;51.350;6.708;2023-09-07T13:48:18;33.10;79.80
11666;DHT22;5889;51.350;6.708;2023-09-07T13:50:47;33.10;79.00
11666;DHT22;5889;51.350;6.708;2023-09-07T13:53:14;33.10;78.90
11666;DHT22;5889;51.350;6.708;2023-09-07T13:55:41;33.10;78.00
11666;DHT22;5889;51.350;6.708;2023-09-07T13:58:10;33.10;78.70
11666;DHT22;5889;51.350;6.708;2023-09-07T14:00:36;33.20;79.40
11666;DHT22;5889;51.350;6.708;2023-09-07T14:03:04;33.30;79.00
11666;DHT22;5889;51.350;6.708;2023-09-07T14:05:31;33.30;78.10
11666;DHT22;5889;51.350;6.708;2023-09-07T14:07:59;33.30;77.50
11666;DHT22;5889;51.350;6.708;2023-09-07T14:10:26;33.30;76.20
11666;DHT22;5889;51.350;6.708;2023-09-07T14:12:53;33.20;76.10
11666;DHT22;5889;51.350;6.708;2023-09-07T14:15:20;33.30;77.10
11666;DHT22;5889;51.350;6.708;2023-09-07T14:17:47;33.30;77.00
11666;DHT22;5889;51.350;6.708;2023-09-07T14:20:14;33.40;77.50
11666;DHT22;5889;51.350;6.708;2023-09-07T14:22:41;33.50;76.90
11666;DHT22;5889;51.350;6.708;2023-09-07T14:25:09;33.50;76.50
11666;DHT22;5889;51.350;6.708;2023-09-07T14:27:36;33.50;76.80
11666;DHT22;5889;51.350;6.708;2023-09-07T14:30:04;33.50;77.30
11666;DHT22;5889;51.350;6.708;2023-09-07T14:32:31;33.60;77.20
11666;DHT22;5889;51.350;6.708;2023-09-07T14:34:58;33.60;77.00
11666;DHT22;5889;51.350;6.708;2023-09-07T14:37:25;33.60;77.30
11666;DHT22;5889;51.350;6.708;2023-09-07T14:39:52;33.70;77.30
11666;DHT22;5889;51.350;6.708;2023-09-07T14:42:24;33.60;78.50
11666;DHT22;5889;51.350;6.708;2023-09-07T14:44:51;33.70;78.20
11666;DHT22;5889;51.350;6.708;2023-09-07T14:47:21;33.70;78.10
11666;DHT22;5889;51.350;6.708;2023-09-07T14:49:51;33.80;79.10
11666;DHT22;5889;51.350;6.708;2023-09-07T14:52:18;33.90;80.10
11666;DHT22;5889;51.350;6.708;2023-09-07T14:54:47;33.90;81.00
11666;DHT22;5889;51.350;6.708;2023-09-07T14:57:14;33.90;80.80
11666;DHT22;5889;51.350;6.708;2023-09-07T14:59:43;34.00;81.70
11666;DHT22;5889;51.350;6.708;2023-09-07T15:02:10;34.10;82.00
11666;DHT22;5889;51.350;6.708;2023-09-07T15:04:37;34.10;81.30
11666;DHT22;5889;51.350;6.708;2023-09-07T15:07:04;34.10;81.60
11666;DHT22;5889;51.350;6.708;2023-09-07T15:09:31;34.10;81.90
11666;DHT22;5889;51.350;6.708;2023-09-07T15:11:58;34.10;81.00
11666;DHT22;5889;51.350;6.708;2023-09-07T15:14:26;34.10;80.30
11666;DHT22;5889;51.350;6.708;2023-09-07T15:16:54;34.00;80.80
11666;DHT22;5889;51.350;6.708;2023-09-07T15:19:21;33.90;80.90
11666;DHT22;5889;51.350;6.708;2023-09-07T15:21:48;33.90;80.10
11666;DHT22;5889;51.350;6.708;2023-09-07T15:24:15;33.90;79.70
11666;DHT22;5889;51.350;6.708;2023-09-07T15:26:42;34.00;80.00
11666;DHT22;5889;51.350;6.708;2023-09-07T15:29:09;34.10;80.20
11666;DHT22;5889;51.350;6.708;2023-09-07T15:31:37;34.10;81.30
11666;DHT22;5889;51.350;6.708;2023-09-07T15:34:05;34.00;81.90
11666;DHT22;5889;51.350;6.708;2023-09-07T15:36:32;34.00;81.90
11666;DHT22;5889;51.350;6.708;2023-09-07T15:39:00;34.10;81.30
11666;DHT22;5889;51.350;6.708;2023-09-07T15:41:28;34.20;78.40
11666;DHT22;5889;51.350;6.708;2023-09-07T15:43:55;34.20;76.50
11666;DHT22;5889;51.350;6.708;2023-09-07T15:46:22;34.20;76.50
11666;DHT22;5889;51.350;6.708;2023-09-07T15:48:52;34.20;75.80